Ievoli Fast — ICKT — position and weather

sailwx.info

Track history (hours):
 
Tides and Currents Weather Stations Pressure Air Temp Water Temp Dewpoint Dewpoint Depression Visibility Wind Speed Wind Dir Waves Ship Positions

Ievoli Fast

Last reported at 2018-Jun-18 03:35 UTC. Time now 2018-Jun-18 13:22 UTC.
Position N 38°46' E 015°07'.

Length 119 m; draft 5.5 m.

Type: Ship. MMSI: 247243700.

Date/timePositionNaut miles runAvg speedWind from/ knotsBaromVisibWave heightAir tempDewpointWater temp
2018-Jun-18 03:35N 38°46' E 015°07'210.8
2018-Jun-18 03:27N 38°45' E 015°08'510.7
2018-Jun-18 02:59N 38°41' E 015°12'510.7
2018-Jun-18 02:29N 38°38' E 015°17'510.3
2018-Jun-18 01:59N 38°34' E 015°22'510.1
2018-Jun-18 01:29N 38°30' E 015°27'5 9.8
2018-Jun-18 01:00N 38°27' E 015°31'5 9.4
2018-Jun-18 00:30N 38°24' E 015°35'5 9.2
2018-Jun-18 00:00N 38°20' E 015°39'5 8.2
2018-Jun-17 23:24N 38°16' E 015°42'4 8.3
2018-Jun-17 22:59N 38°14' E 015°38'4 9.2
2018-Jun-17 22:30N 38°10' E 015°37'610.8
2018-Jun-17 21:59N 38°04' E 015°36'810.3
2018-Jun-17 21:13N 37°57' E 015°37'610.2
2018-Jun-17 20:39N 37°52' E 015°42'311.4
2018-Jun-17 20:21N 37°52' E 015°46'510.5
2018-Jun-17 19:53N 37°52' E 015°53'428 8.3
2018-Jun-15 16:18N 44°40' E 013°01'310.3
2018-Jun-15 16:01N 44°43' E 012°60'610.2
2018-Jun-15 15:27N 44°48' E 012°57'510.3
2018-Jun-15 15:00N 44°52' E 012°54'510.7
2018-Jun-15 14:30N 44°57' E 012°50'510.9
2018-Jun-15 14:00N 45°01' E 012°46'611.0
2018-Jun-15 13:30N 45°06' E 012°42'510.5
2018-Jun-15 13:00N 45°09' E 012°36'510.1
2018-Jun-15 12:29N 45°13' E 012°31'5 9.7
2018-Jun-15 12:00N 45°16' E 012°27'510.0
2018-Jun-15 11:29N 45°20' E 012°21'4 9.0
2018-Jun-15 11:00N 45°21' E 012°15'5 8.8
2018-Jun-15 10:29N 45°26' E 012°16'1 0.1
2018-Jun-14 14:17N 45°27' E 012°16'0 1.0
2018-Jun-14 13:58N 45°27' E 012°16'3 7.0
2018-Jun-14 13:30N 45°24' E 012°16'5 7.3
2018-Jun-14 12:52N 45°20' E 012°20'3 7.1
2018-Jun-14 12:31N 45°20' E 012°23'1 1.2
2018-Jun-14 11:59N 45°20' E 012°24'0 0.0
2018-Jun-14 11:30N 45°20' E 012°24'0 0.0
2018-Jun-14 11:00N 45°20' E 012°24'0 0.0
2018-Jun-14 10:30N 45°20' E 012°24'0 0.0
2018-Jun-14 10:00N 45°20' E 012°24'0 0.0
2018-Jun-14 09:30N 45°20' E 012°24'0 0.0
2018-Jun-14 09:00N 45°20' E 012°24'0 0.0
2018-Jun-14 08:30N 45°20' E 012°24'0 0.0
2018-Jun-14 08:00N 45°20' E 012°24'0 0.0
2018-Jun-14 07:30N 45°20' E 012°24'0 0.0
2018-Jun-14 07:00N 45°20' E 012°24'0 0.0
2018-Jun-14 06:30N 45°20' E 012°24'0 0.0
2018-Jun-14 06:00N 45°20' E 012°24'0 0.0
2018-Jun-14 05:30N 45°20' E 012°24'0 0.0
2018-Jun-14 05:00N 45°20' E 012°24'0 0.0
2018-Jun-14 04:30N 45°20' E 012°24'0 0.0
2018-Jun-14 04:00N 45°20' E 012°24'0 0.0
2018-Jun-14 03:30N 45°20' E 012°24'0 0.0
2018-Jun-14 03:00N 45°20' E 012°24'0 0.0
2018-Jun-14 02:30N 45°20' E 012°24'0 0.0
2018-Jun-14 02:00N 45°20' E 012°24'0 0.0
2018-Jun-14 01:30N 45°20' E 012°24'0 0.0
2018-Jun-14 01:00N 45°20' E 012°24'0 0.0
2018-Jun-14 00:30N 45°20' E 012°24'0 0.0
2018-Jun-14 00:00N 45°20' E 012°24'0 0.0
2018-Jun-13 23:30N 45°20' E 012°24'0 0.0
2018-Jun-13 23:00N 45°20' E 012°24'0 0.0
2018-Jun-13 22:30N 45°20' E 012°24'0 0.0
2018-Jun-13 22:00N 45°20' E 012°24'0 0.0
2018-Jun-13 21:30N 45°20' E 012°24'0 0.0
2018-Jun-13 21:00N 45°20' E 012°24'0 0.0
2018-Jun-13 20:30N 45°20' E 012°24'0 0.3
2018-Jun-13 20:00N 45°20' E 012°24'0 0.0
2018-Jun-13 19:30N 45°20' E 012°24'0 0.0
2018-Jun-13 19:00N 45°20' E 012°24'0 0.1
2018-Jun-13 18:30N 45°20' E 012°24'0 0.2
2018-Jun-13 18:00N 45°20' E 012°24'0 0.0
2018-Jun-13 17:30N 45°21' E 012°24'0 0.0
2018-Jun-13 17:01N 45°20' E 012°24'0 0.1
2018-Jun-13 16:30N 45°21' E 012°24'0 0.0
2018-Jun-13 16:00N 45°21' E 012°24'0 0.0
2018-Jun-13 15:30N 45°21' E 012°24'0 0.0
2018-Jun-13 15:00N 45°21' E 012°24'0 0.0
2018-Jun-13 14:30N 45°21' E 012°24'0 0.0
2018-Jun-13 14:00N 45°21' E 012°24'0 0.0
2018-Jun-13 13:29N 45°21' E 012°24'0 0.0
2018-Jun-13 13:00N 45°21' E 012°24'0 0.0
2018-Jun-13 12:30N 45°21' E 012°24'0 0.0
2018-Jun-13 12:00N 45°21' E 012°24'0 0.0
2018-Jun-13 11:30N 45°21' E 012°24'0 0.0
2018-Jun-13 11:00N 45°21' E 012°24'0 0.0
2018-Jun-13 10:29N 45°21' E 012°24'0 0.0
2018-Jun-13 10:00N 45°21' E 012°24'0 0.0
2018-Jun-13 09:30N 45°21' E 012°24'0 0.0
2018-Jun-13 09:00N 45°21' E 012°24'0 0.0
2018-Jun-13 08:30N 45°21' E 012°24'0 0.0
2018-Jun-13 08:00N 45°21' E 012°24'0 0.0
2018-Jun-13 07:30N 45°21' E 012°24'0 0.0
2018-Jun-13 07:00N 45°21' E 012°24'0 0.0
2018-Jun-13 06:30N 45°21' E 012°24'0 0.1
2018-Jun-13 06:00N 45°21' E 012°24'0 0.1
2018-Jun-13 05:29N 45°21' E 012°24'0 0.0
2018-Jun-13 05:00N 45°21' E 012°24'0 0.0
2018-Jun-13 04:30N 45°20' E 012°24'0 0.1
2018-Jun-13 03:59N 45°21' E 012°24'0 0.0
2018-Jun-13 03:30N 45°21' E 012°24'0 0.0
2018-Jun-13 03:00N 45°21' E 012°24'0 0.1
2018-Jun-13 02:29N 45°20' E 012°24'0 0.0
2018-Jun-13 02:00N 45°20' E 012°24'0 0.1
2018-Jun-13 01:30N 45°20' E 012°24'0 0.0
2018-Jun-13 01:00N 45°20' E 012°24'0 0.0
2018-Jun-13 00:27N 45°20' E 012°24'0 0.0
2018-Jun-13 00:00N 45°20' E 012°24'0 0.0
2018-Jun-12 23:30N 45°20' E 012°24'0 0.0
2018-Jun-12 23:00N 45°20' E 012°24'0 0.1
2018-Jun-12 22:30N 45°20' E 012°24'0 0.1
2018-Jun-12 21:58N 45°20' E 012°24'0 0.0
2018-Jun-12 21:30N 45°20' E 012°24'0 0.1
2018-Jun-12 21:00N 45°20' E 012°24'0 0.1
2018-Jun-12 20:30N 45°20' E 012°24'0 0.1
2018-Jun-12 20:00N 45°20' E 012°24'0 0.0
2018-Jun-12 19:28N 45°20' E 012°24'0 0.0
2018-Jun-12 19:00N 45°20' E 012°24'0 0.0
2018-Jun-12 18:29N 45°20' E 012°24'0 0.1
2018-Jun-12 18:00N 45°20' E 012°24'0 0.0
2018-Jun-12 17:30N 45°20' E 012°24'0 0.0
2018-Jun-12 17:00N 45°20' E 012°24'0 0.1
2018-Jun-12 16:30N 45°20' E 012°24'0 0.1
2018-Jun-12 15:57N 45°20' E 012°24'0 0.1
2018-Jun-12 15:30N 45°20' E 012°24'0 0.0
2018-Jun-12 15:00N 45°20' E 012°24'0 0.0
2018-Jun-12 14:30N 45°20' E 012°24'0 0.0
2018-Jun-12 14:00N 45°20' E 012°24'0 0.1
2018-Jun-12 13:29N 45°20' E 012°24'0 0.1
2018-Jun-12 13:00N 45°21' E 012°24'0 0.1
2018-Jun-12 12:30N 45°21' E 012°24'0 0.0
2018-Jun-12 12:00N 45°21' E 012°24'0 0.0
2018-Jun-12 11:30N 45°21' E 012°24'0 0.0
2018-Jun-12 11:00N 45°21' E 012°24'0 0.0
2018-Jun-12 10:30N 45°21' E 012°24'0 0.0
2018-Jun-12 09:59N 45°21' E 012°24'0 0.0
2018-Jun-12 09:30N 45°21' E 012°24'0 0.0
2018-Jun-12 09:00N 45°21' E 012°24'0 0.0
2018-Jun-12 08:29N 45°21' E 012°24'0 0.0
2018-Jun-12 07:59N 45°21' E 012°24'0 0.0
2018-Jun-12 07:30N 45°21' E 012°24'0 0.1
2018-Jun-12 07:00N 45°21' E 012°24'0 0.0
2018-Jun-12 06:30N 45°21' E 012°24'0 0.0
2018-Jun-12 06:00N 45°21' E 012°24'0 0.0
2018-Jun-12 05:30N 45°21' E 012°24'0 0.0
2018-Jun-12 05:00N 45°21' E 012°24'0 0.0
2018-Jun-12 04:29N 45°20' E 012°24'0 0.0
2018-Jun-12 04:00N 45°20' E 012°24'0 0.0
2018-Jun-12 03:30N 45°20' E 012°24'0 0.0
2018-Jun-12 03:00N 45°20' E 012°24'0 0.0
2018-Jun-12 02:30N 45°20' E 012°24'0 0.0
2018-Jun-12 02:00N 45°20' E 012°24'0 0.0
2018-Jun-12 01:29N 45°20' E 012°24'0 0.1
2018-Jun-12 01:00N 45°21' E 012°24'0 0.0
2018-Jun-12 00:30N 45°21' E 012°24'0 0.0
2018-Jun-12 00:00N 45°21' E 012°24'0 0.0
2018-Jun-11 23:30N 45°20' E 012°24'0 0.0
2018-Jun-11 22:58N 45°20' E 012°24'0 0.0
2018-Jun-11 22:27N 45°20' E 012°24'0 0.0
2018-Jun-11 22:00N 45°20' E 012°24'0 0.0
2018-Jun-11 21:29N 45°20' E 012°24'0 0.0
2018-Jun-11 21:00N 45°20' E 012°24'0 0.0
2018-Jun-11 20:30N 45°21' E 012°24'0 0.0
2018-Jun-11 20:00N 45°21' E 012°24'0 0.0
2018-Jun-11 19:30N 45°21' E 012°24'0 0.0
2018-Jun-11 18:58N 45°21' E 012°24'0 0.0
2018-Jun-11 18:30N 45°21' E 012°24'0 0.0
2018-Jun-11 18:00N 45°21' E 012°24'0 0.0
2018-Jun-11 17:30N 45°21' E 012°24'0 0.0
2018-Jun-11 17:00N 45°21' E 012°24'0 0.0
2018-Jun-11 16:30N 45°21' E 012°24'0 0.0
2018-Jun-11 16:00N 45°21' E 012°24'0 0.0
2018-Jun-11 15:30N 45°21' E 012°24'0 0.0
2018-Jun-11 14:59N 45°21' E 012°24'0 0.0
2018-Jun-11 14:30N 45°21' E 012°24'0 0.0
2018-Jun-11 14:01N 45°21' E 012°24'0 0.0
2018-Jun-11 13:27N 45°21' E 012°24'0 0.0
2018-Jun-11 12:59N 45°21' E 012°24'0 0.0
2018-Jun-11 12:29N 45°21' E 012°24'0 0.2
2018-Jun-11 12:00N 45°20' E 012°24'3 6.3
2018-Jun-11 11:30N 45°18' E 012°27'510.8
2018-Jun-11 11:00N 45°16' E 012°34'510.8
2018-Jun-11 10:30N 45°13' E 012°40'610.6
2018-Jun-11 09:59N 45°09' E 012°46'510.5
2018-Jun-11 09:30N 45°05' E 012°50'1210.8
2018-Jun-11 08:22N 44°54' E 012°59'410.5
2018-Jun-11 08:00N 44°54' E 013°04'510.7
2018-Jun-11 07:30N 44°55' E 013°11'510.9
2018-Jun-11 07:00N 44°56' E 013°19'6 9.9
2018-Jun-11 06:25N 44°53' E 013°26'511.2
2018-Jun-11 06:00N 44°49' E 013°29'611.1
2018-Jun-11 05:30N 44°44' E 013°34'910.2
2018-Jun-11 04:35N 44°41' E 013°46'111.1
2018-Jun-11 04:30N 44°40' E 013°47'510.9
2018-Jun-11 04:00N 44°41' E 013°55'8 9.6
2018-Jun-11 03:10N 44°45' E 014°04'210.9
2018-Jun-11 03:00N 44°47' E 014°05'33 0.7
2018-Jun-09 02:58N 45°15' E 014°27'6 0.8
2018-Jun-08 19:01N 45°12' E 014°20'1711.1
2018-Jun-08 17:31N 44°56' E 014°13'011.7
2018-Jun-08 17:30N 44°56' E 014°13'711.6
2018-Jun-08 16:55N 44°50' E 014°08'511.3
2018-Jun-08 16:30N 44°47' E 014°04'611.8
2018-Jun-08 16:00N 44°42' E 013°60'611.1
2018-Jun-08 15:30N 44°38' E 013°53'611.2
2018-Jun-08 15:00N 44°36' E 013°46'611.0
2018-Jun-08 14:30N 44°33' E 013°40'510.0
2018-Jun-08 14:00N 44°36' E 013°35'611.5
2018-Jun-08 13:30N 44°41' E 013°30'611.6
2018-Jun-08 12:59N 44°46' E 013°26'611.7
2018-Jun-08 12:30N 44°51' E 013°21'510.6
2018-Jun-08 12:00N 44°54' E 013°15'611.8
2018-Jun-08 11:30N 44°54' E 013°06'611.7
2018-Jun-08 11:00N 44°53' E 012°58'510.6
2018-Jun-08 10:30N 44°54' E 012°50'511.0
2018-Jun-08 10:00N 44°59' E 012°47'611.6
2018-Jun-08 09:30N 45°04' E 012°44'611.0
2018-Jun-08 09:00N 45°08' E 012°39'611.3
2018-Jun-08 08:30N 45°11' E 012°32'611.4
2018-Jun-08 08:00N 45°16' E 012°28'611.6
2018-Jun-08 07:30N 45°20' E 012°21'5 9.2
2018-Jun-08 07:00N 45°22' E 012°15'5 9.4
2018-Jun-08 06:30N 45°27' E 012°16'  
Track history (hours):
 
Tides and Currents Weather Stations Pressure Air Temp Water Temp Dewpoint Dewpoint Depression Visibility Wind Speed Wind Dir Waves Ship Positions

Ievoli Fast

Last reported at 2018-Jun-18 03:35 UTC. Time now 2018-Jun-18 13:22 UTC.
Position N 38°46' E 015°07'.

Length 119 m; draft 5.5 m.

Type: Ship. MMSI: 247243700.

Date/timePositionNaut miles runAvg speedWind from/ knotsBaromVisibWave heightAir tempDewpointWater temp
2018-Jun-18 03:35N 38°46' E 015°07'210.8
2018-Jun-18 03:27N 38°45' E 015°08'510.7
2018-Jun-18 02:59N 38°41' E 015°12'510.7
2018-Jun-18 02:29N 38°38' E 015°17'510.3
2018-Jun-18 01:59N 38°34' E 015°22'510.1
2018-Jun-18 01:29N 38°30' E 015°27'5 9.8
2018-Jun-18 01:00N 38°27' E 015°31'5 9.4
2018-Jun-18 00:30N 38°24' E 015°35'5 9.2
2018-Jun-18 00:00N 38°20' E 015°39'5 8.2
2018-Jun-17 23:24N 38°16' E 015°42'4 8.3
2018-Jun-17 22:59N 38°14' E 015°38'4 9.2
2018-Jun-17 22:30N 38°10' E 015°37'610.8
2018-Jun-17 21:59N 38°04' E 015°36'810.3
2018-Jun-17 21:13N 37°57' E 015°37'610.2
2018-Jun-17 20:39N 37°52' E 015°42'311.4
2018-Jun-17 20:21N 37°52' E 015°46'510.5
2018-Jun-17 19:53N 37°52' E 015°53'428 8.3
2018-Jun-15 16:18N 44°40' E 013°01'310.3
2018-Jun-15 16:01N 44°43' E 012°60'610.2
2018-Jun-15 15:27N 44°48' E 012°57'510.3
2018-Jun-15 15:00N 44°52' E 012°54'510.7
2018-Jun-15 14:30N 44°57' E 012°50'510.9
2018-Jun-15 14:00N 45°01' E 012°46'611.0
2018-Jun-15 13:30N 45°06' E 012°42'510.5
2018-Jun-15 13:00N 45°09' E 012°36'510.1
2018-Jun-15 12:29N 45°13' E 012°31'5 9.7
2018-Jun-15 12:00N 45°16' E 012°27'510.0
2018-Jun-15 11:29N 45°20' E 012°21'4 9.0
2018-Jun-15 11:00N 45°21' E 012°15'5 8.8
2018-Jun-15 10:29N 45°26' E 012°16'1 0.1
2018-Jun-14 14:17N 45°27' E 012°16'0 1.0
2018-Jun-14 13:58N 45°27' E 012°16'3 7.0
2018-Jun-14 13:30N 45°24' E 012°16'5 7.3
2018-Jun-14 12:52N 45°20' E 012°20'3 7.1
2018-Jun-14 12:31N 45°20' E 012°23'1 1.2
2018-Jun-14 11:59N 45°20' E 012°24'0 0.0
2018-Jun-14 11:30N 45°20' E 012°24'0 0.0
2018-Jun-14 11:00N 45°20' E 012°24'0 0.0
2018-Jun-14 10:30N 45°20' E 012°24'0 0.0
2018-Jun-14 10:00N 45°20' E 012°24'0 0.0
2018-Jun-14 09:30N 45°20' E 012°24'0 0.0
2018-Jun-14 09:00N 45°20' E 012°24'0 0.0
2018-Jun-14 08:30N 45°20' E 012°24'0 0.0
2018-Jun-14 08:00N 45°20' E 012°24'0 0.0
2018-Jun-14 07:30N 45°20' E 012°24'0 0.0
2018-Jun-14 07:00N 45°20' E 012°24'0 0.0
2018-Jun-14 06:30N 45°20' E 012°24'0 0.0
2018-Jun-14 06:00N 45°20' E 012°24'0 0.0
2018-Jun-14 05:30N 45°20' E 012°24'0 0.0
2018-Jun-14 05:00N 45°20' E 012°24'0 0.0
2018-Jun-14 04:30N 45°20' E 012°24'0 0.0
2018-Jun-14 04:00N 45°20' E 012°24'0 0.0
2018-Jun-14 03:30N 45°20' E 012°24'0 0.0
2018-Jun-14 03:00N 45°20' E 012°24'0 0.0
2018-Jun-14 02:30N 45°20' E 012°24'0 0.0
2018-Jun-14 02:00N 45°20' E 012°24'0 0.0
2018-Jun-14 01:30N 45°20' E 012°24'0 0.0
2018-Jun-14 01:00N 45°20' E 012°24'0 0.0
2018-Jun-14 00:30N 45°20' E 012°24'0 0.0
2018-Jun-14 00:00N 45°20' E 012°24'0 0.0
2018-Jun-13 23:30N 45°20' E 012°24'0 0.0
2018-Jun-13 23:00N 45°20' E 012°24'0 0.0
2018-Jun-13 22:30N 45°20' E 012°24'0 0.0
2018-Jun-13 22:00N 45°20' E 012°24'0 0.0
2018-Jun-13 21:30N 45°20' E 012°24'0 0.0
2018-Jun-13 21:00N 45°20' E 012°24'0 0.0
2018-Jun-13 20:30N 45°20' E 012°24'0 0.3
2018-Jun-13 20:00N 45°20' E 012°24'0 0.0
2018-Jun-13 19:30N 45°20' E 012°24'0 0.0
2018-Jun-13 19:00N 45°20' E 012°24'0 0.1
2018-Jun-13 18:30N 45°20' E 012°24'0 0.2
2018-Jun-13 18:00N 45°20' E 012°24'0 0.0
2018-Jun-13 17:30N 45°21' E 012°24'0 0.0
2018-Jun-13 17:01N 45°20' E 012°24'0 0.1
2018-Jun-13 16:30N 45°21' E 012°24'0 0.0
2018-Jun-13 16:00N 45°21' E 012°24'0 0.0
2018-Jun-13 15:30N 45°21' E 012°24'0 0.0
2018-Jun-13 15:00N 45°21' E 012°24'0 0.0
2018-Jun-13 14:30N 45°21' E 012°24'0 0.0
2018-Jun-13 14:00N 45°21' E 012°24'0 0.0
2018-Jun-13 13:29N 45°21' E 012°24'0 0.0
2018-Jun-13 13:00N 45°21' E 012°24'0 0.0
2018-Jun-13 12:30N 45°21' E 012°24'0 0.0
2018-Jun-13 12:00N 45°21' E 012°24'0 0.0
2018-Jun-13 11:30N 45°21' E 012°24'0 0.0
2018-Jun-13 11:00N 45°21' E 012°24'0 0.0
2018-Jun-13 10:29N 45°21' E 012°24'0 0.0
2018-Jun-13 10:00N 45°21' E 012°24'0 0.0
2018-Jun-13 09:30N 45°21' E 012°24'0 0.0
2018-Jun-13 09:00N 45°21' E 012°24'0 0.0
2018-Jun-13 08:30N 45°21' E 012°24'0 0.0
2018-Jun-13 08:00N 45°21' E 012°24'0 0.0
2018-Jun-13 07:30N 45°21' E 012°24'0 0.0
2018-Jun-13 07:00N 45°21' E 012°24'0 0.0
2018-Jun-13 06:30N 45°21' E 012°24'0 0.1
2018-Jun-13 06:00N 45°21' E 012°24'0 0.1
2018-Jun-13 05:29N 45°21' E 012°24'0 0.0
2018-Jun-13 05:00N 45°21' E 012°24'0 0.0
2018-Jun-13 04:30N 45°20' E 012°24'0 0.1
2018-Jun-13 03:59N 45°21' E 012°24'0 0.0
2018-Jun-13 03:30N 45°21' E 012°24'0 0.0
2018-Jun-13 03:00N 45°21' E 012°24'0 0.1
2018-Jun-13 02:29N 45°20' E 012°24'0 0.0
2018-Jun-13 02:00N 45°20' E 012°24'0 0.1
2018-Jun-13 01:30N 45°20' E 012°24'0 0.0
2018-Jun-13 01:00N 45°20' E 012°24'0 0.0
2018-Jun-13 00:27N 45°20' E 012°24'0 0.0
2018-Jun-13 00:00N 45°20' E 012°24'0 0.0
2018-Jun-12 23:30N 45°20' E 012°24'0 0.0
2018-Jun-12 23:00N 45°20' E 012°24'0 0.1
2018-Jun-12 22:30N 45°20' E 012°24'0 0.1
2018-Jun-12 21:58N 45°20' E 012°24'0 0.0
2018-Jun-12 21:30N 45°20' E 012°24'0 0.1
2018-Jun-12 21:00N 45°20' E 012°24'0 0.1
2018-Jun-12 20:30N 45°20' E 012°24'0 0.1
2018-Jun-12 20:00N 45°20' E 012°24'0 0.0
2018-Jun-12 19:28N 45°20' E 012°24'0 0.0
2018-Jun-12 19:00N 45°20' E 012°24'0 0.0
2018-Jun-12 18:29N 45°20' E 012°24'0 0.1
2018-Jun-12 18:00N 45°20' E 012°24'0 0.0
2018-Jun-12 17:30N 45°20' E 012°24'0 0.0
2018-Jun-12 17:00N 45°20' E 012°24'0 0.1
2018-Jun-12 16:30N 45°20' E 012°24'0 0.1
2018-Jun-12 15:57N 45°20' E 012°24'0 0.1
2018-Jun-12 15:30N 45°20' E 012°24'0 0.0
2018-Jun-12 15:00N 45°20' E 012°24'0 0.0
2018-Jun-12 14:30N 45°20' E 012°24'0 0.0
2018-Jun-12 14:00N 45°20' E 012°24'0 0.1
2018-Jun-12 13:29N 45°20' E 012°24'0 0.1
2018-Jun-12 13:00N 45°21' E 012°24'0 0.1
2018-Jun-12 12:30N 45°21' E 012°24'0 0.0
2018-Jun-12 12:00N 45°21' E 012°24'0 0.0
2018-Jun-12 11:30N 45°21' E 012°24'0 0.0
2018-Jun-12 11:00N 45°21' E 012°24'0 0.0
2018-Jun-12 10:30N 45°21' E 012°24'0 0.0
2018-Jun-12 09:59N 45°21' E 012°24'0 0.0
2018-Jun-12 09:30N 45°21' E 012°24'0 0.0
2018-Jun-12 09:00N 45°21' E 012°24'0 0.0
2018-Jun-12 08:29N 45°21' E 012°24'0 0.0
2018-Jun-12 07:59N 45°21' E 012°24'0 0.0
2018-Jun-12 07:30N 45°21' E 012°24'0 0.1
2018-Jun-12 07:00N 45°21' E 012°24'0 0.0
2018-Jun-12 06:30N 45°21' E 012°24'0 0.0
2018-Jun-12 06:00N 45°21' E 012°24'0 0.0
2018-Jun-12 05:30N 45°21' E 012°24'0 0.0
2018-Jun-12 05:00N 45°21' E 012°24'0 0.0
2018-Jun-12 04:29N 45°20' E 012°24'0 0.0
2018-Jun-12 04:00N 45°20' E 012°24'0 0.0
2018-Jun-12 03:30N 45°20' E 012°24'0 0.0
2018-Jun-12 03:00N 45°20' E 012°24'0 0.0
2018-Jun-12 02:30N 45°20' E 012°24'0 0.0
2018-Jun-12 02:00N 45°20' E 012°24'0 0.0
2018-Jun-12 01:29N 45°20' E 012°24'0 0.1
2018-Jun-12 01:00N 45°21' E 012°24'0 0.0
2018-Jun-12 00:30N 45°21' E 012°24'0 0.0
2018-Jun-12 00:00N 45°21' E 012°24'0 0.0
2018-Jun-11 23:30N 45°20' E 012°24'0 0.0
2018-Jun-11 22:58N 45°20' E 012°24'0 0.0
2018-Jun-11 22:27N 45°20' E 012°24'0 0.0
2018-Jun-11 22:00N 45°20' E 012°24'0 0.0
2018-Jun-11 21:29N 45°20' E 012°24'0 0.0
2018-Jun-11 21:00N 45°20' E 012°24'0 0.0
2018-Jun-11 20:30N 45°21' E 012°24'0 0.0
2018-Jun-11 20:00N 45°21' E 012°24'0 0.0
2018-Jun-11 19:30N 45°21' E 012°24'0 0.0
2018-Jun-11 18:58N 45°21' E 012°24'0 0.0
2018-Jun-11 18:30N 45°21' E 012°24'0 0.0
2018-Jun-11 18:00N 45°21' E 012°24'0 0.0
2018-Jun-11 17:30N 45°21' E 012°24'0 0.0
2018-Jun-11 17:00N 45°21' E 012°24'0 0.0
2018-Jun-11 16:30N 45°21' E 012°24'0 0.0
2018-Jun-11 16:00N 45°21' E 012°24'0 0.0
2018-Jun-11 15:30N 45°21' E 012°24'0 0.0
2018-Jun-11 14:59N 45°21' E 012°24'0 0.0
2018-Jun-11 14:30N 45°21' E 012°24'0 0.0
2018-Jun-11 14:01N 45°21' E 012°24'0 0.0
2018-Jun-11 13:27N 45°21' E 012°24'0 0.0
2018-Jun-11 12:59N 45°21' E 012°24'0 0.0
2018-Jun-11 12:29N 45°21' E 012°24'0 0.2
2018-Jun-11 12:00N 45°20' E 012°24'3 6.3
2018-Jun-11 11:30N 45°18' E 012°27'510.8
2018-Jun-11 11:00N 45°16' E 012°34'510.8
2018-Jun-11 10:30N 45°13' E 012°40'610.6
2018-Jun-11 09:59N 45°09' E 012°46'510.5
2018-Jun-11 09:30N 45°05' E 012°50'1210.8
2018-Jun-11 08:22N 44°54' E 012°59'410.5
2018-Jun-11 08:00N 44°54' E 013°04'510.7
2018-Jun-11 07:30N 44°55' E 013°11'510.9
2018-Jun-11 07:00N 44°56' E 013°19'6 9.9
2018-Jun-11 06:25N 44°53' E 013°26'511.2
2018-Jun-11 06:00N 44°49' E 013°29'611.1
2018-Jun-11 05:30N 44°44' E 013°34'910.2
2018-Jun-11 04:35N 44°41' E 013°46'111.1
2018-Jun-11 04:30N 44°40' E 013°47'510.9
2018-Jun-11 04:00N 44°41' E 013°55'8 9.6
2018-Jun-11 03:10N 44°45' E 014°04'210.9
2018-Jun-11 03:00N 44°47' E 014°05'33 0.7
2018-Jun-09 02:58N 45°15' E 014°27'6 0.8
2018-Jun-08 19:01N 45°12' E 014°20'1711.1
2018-Jun-08 17:31N 44°56' E 014°13'011.7
2018-Jun-08 17:30N 44°56' E 014°13'711.6
2018-Jun-08 16:55N 44°50' E 014°08'511.3
2018-Jun-08 16:30N 44°47' E 014°04'611.8
2018-Jun-08 16:00N 44°42' E 013°60'611.1
2018-Jun-08 15:30N 44°38' E 013°53'611.2
2018-Jun-08 15:00N 44°36' E 013°46'611.0
2018-Jun-08 14:30N 44°33' E 013°40'510.0
2018-Jun-08 14:00N 44°36' E 013°35'611.5
2018-Jun-08 13:30N 44°41' E 013°30'611.6
2018-Jun-08 12:59N 44°46' E 013°26'611.7
2018-Jun-08 12:30N 44°51' E 013°21'510.6
2018-Jun-08 12:00N 44°54' E 013°15'611.8
2018-Jun-08 11:30N 44°54' E 013°06'611.7
2018-Jun-08 11:00N 44°53' E 012°58'510.6
2018-Jun-08 10:30N 44°54' E 012°50'511.0
2018-Jun-08 10:00N 44°59' E 012°47'611.6
2018-Jun-08 09:30N 45°04' E 012°44'611.0
2018-Jun-08 09:00N 45°08' E 012°39'611.3
2018-Jun-08 08:30N 45°11' E 012°32'611.4
2018-Jun-08 08:00N 45°16' E 012°28'611.6
2018-Jun-08 07:30N 45°20' E 012°21'5 9.2
2018-Jun-08 07:00N 45°22' E 012°15'5 9.4
2018-Jun-08 06:30N 45°27' E 012°16'  

Dump ship's entire track history